首页
METAR-TAF:

METAR-TAF

机场 :

艾拉島, 苏格兰

纬度: 55-40-55N, 经度: 006-15-24W, 海拔: 16米

当前天气观测

该预报发布于33分钟前的02:50 UTC
风速10节,风向南转西南,在西南之间变化
温度 7°C
湿度 81%
气压 1013 hPa
能见度10公里或以上

METAR: EGPI 040250Z AUTO 20010KT 170V230 9999 BKN045/// 07/04 Q1013

时间: 04:23 (03:23 UTC)

预报

该预报发布于1小时和28分钟前的01:55 UTC
预报有效从04日的 03点(UTC)到 04日的 12点(UTC)
风速9节,风向
能见度10公里或以上
散云层高于4500英尺
几率 30% :
短暂存在
从 04日的 03点(UTC)到 04日的 12点(UTC)
风速15节,风向南转西南,有时为25节阵风

TAF: EGPI 040155Z 0403/0412 17009KT 9999 SCT045 PROB30 TEMPO 0403/0412 21015G25KT

超过4000个机场的气象观测和天气预报(METAR&TAF报告)。

可查询的气象台以黄色和红色小点在地图上表示。

将鼠标移到小点上方,可查看气象台名称。

然后点击查看天气观测和预报。

如需切换地图:点击带黑十字的绿色按钮放大地图;点击带横线的绿色按钮缩小地图;或者点击绿色箭头查看邻近地区的地图。


METAR-TAF: